Bei Facebook empfehlenBei Twitter postenGoogle plusPinterest

Das Wetter im Erzgebirge am 27.06.2016

Wetter und Klima am 27.06.2016 Holzhau im Erzgebirge (630m ü.NN)
Letzte gemessene Temperatur und Uhrzeit der Messung23:45:00 Uhr8.80 °C
Temperatur (Maximum / Höchstwert) und Uhrzeit der Messung15:45:00 Uhr22.00 °C
Temperatur (Minimum / Tiefstwert) und Uhrzeit der Messung23:45:008.80 °C
Errechneter Absolutwert der Temperaturschwankungen zwischen Tmin und Tmax des Tages13.20 K
Errechnete Tagesmitteltemperatur15.68750 °C
Gesamt - Niederschlag des Tages (in flüssiger Form)0.52 Liter / m²
Luftdruck (Maximum / Höchstwert) und Zeitpunkt der Messung12:00:00 Uhr1016.40 hPa
Luftdruck (Minimum / Tiefstwert) und Zeitpunkt der Messung03:15:00 Uhr1014.70 hPa
Errechneter Absolutwert der Luftdruckschwankungen des Tages1.70 hPa
Höchste gemessene Windgeschwindigkeit und Uhrzeit der Messung23:45:00 Uhr0.00 km/h
Errechnete Windhäufigkeit in Relation zu den Messwerten des Tages0.00000 %
Niedrigste Windkühle (Windchill) und Zeitpunkt der Messung23:45:00 Uhr8.80 °C
Taupunkt (Maximum / Höchstwert) und Uhrzeit der Messung12:00:00 Uhr13.60 °C
Taupunkt (Minimum / Tiefstwert) und Uhrzeit der Messung23:30:006.00 °C
Anzahl der automatisch eingelesenen Messwerte 96

Detaillierte Wetter- und Klima- Messwerte für den 27.06.2016 in Holzhau im Erzgebirge (630m ü.NN)
ZeitTemperaturLuftdruckRel. LuftfeuchteWindWindrichtungWindchillTaupunktNiederschlag l/m²
23:45:008.80 °C1016.20 hPa83.00 %6.10 °C0.52
23:30:008.90 °C1016.20 hPa82.00 %6.00 °C0.52
23:15:009.30 °C1016.30 hPa81.00 %6.20 °C0.52
23:00:009.90 °C1016.20 hPa81.00 %6.80 °C0.52
22:45:0010.20 °C1016.30 hPa80.00 %6.90 °C0.52
22:30:0010.40 °C1016.10 hPa79.00 %6.90 °C0.52
22:15:0010.80 °C1016.00 hPa77.00 %6.90 °C0.52
22:00:0011.40 °C1015.90 hPa75.00 %7.10 °C0.52
21:45:0012.10 °C1016.00 hPa74.00 %7.60 °C0.52
21:30:0012.90 °C1015.80 hPa71.00 %7.80 °C0.52
21:15:0013.80 °C1015.70 hPa69.00 %8.20 °C0.52
21:00:0014.90 °C1015.60 hPa66.00 %8.60 °C0.52
20:45:0015.80 °C1015.40 hPa63.00 %8.80 °C0.52
20:30:0016.40 °C1015.50 hPa60.00 %8.60 °C0.52
20:15:0017.30 °C1015.50 hPa58.00 %9.00 °C0.52
20:00:0017.90 °C1015.60 hPa58.00 %9.50 °C0.52
19:45:0018.30 °C1015.50 hPa59.00 %10.20 °C0.52
19:30:0018.50 °C1015.60 hPa57.00 %9.80 °C0.52
19:15:0018.90 °C1015.60 hPa56.00 %9.90 °C0.52
19:00:0019.10 °C1015.40 hPa53.00 %9.30 °C0.52
18:45:0020.40 °C1015.30 hPa53.00 %10.50 °C0.52
18:30:0020.50 °C1015.50 hPa53.00 %10.60 °C0.52
18:15:0020.40 °C1015.30 hPa53.00 %10.50 °C0.52
18:00:0020.50 °C1015.30 hPa52.00 %10.30 °C0.52
17:45:0020.50 °C1015.60 hPa53.00 %10.60 °C0.52
17:30:0020.70 °C1015.50 hPa53.00 %10.80 °C0.52
17:15:0021.40 °C1015.40 hPa52.00 %11.10 °C0.52
17:00:0021.80 °C1015.30 hPa51.00 %11.20 °C0.52
16:45:0021.40 °C1015.20 hPa54.00 %11.70 °C0.52
16:30:0021.50 °C1015.40 hPa54.00 %11.80 °C0.52
16:15:0021.90 °C1015.20 hPa52.00 %11.60 °C0.52
16:00:0021.90 °C1015.20 hPa53.00 %11.90 °C0.52
15:45:0022.00 °C1015.10 hPa54.00 %12.30 °C0.52
15:30:0021.40 °C1015.20 hPa56.00 %12.30 °C0.52
15:15:0019.80 °C1015.20 hPa57.00 %11.00 °C0.52
15:00:0019.90 °C1015.10 hPa57.00 %11.10 °C0.52
14:45:0020.60 °C1015.20 hPa56.00 %11.50 °C0.52
14:30:0020.60 °C1015.20 hPa56.00 %11.50 °C0.52
14:15:0021.80 °C1015.30 hPa58.00 %13.20 °C0.52
14:00:0021.10 °C1015.40 hPa60.00 %13.00 °C0.52
13:45:0020.90 °C1015.70 hPa58.00 %12.30 °C0.52
13:30:0020.10 °C1015.70 hPa62.00 %12.60 °C0.52
13:15:0019.90 °C1015.80 hPa60.00 %11.90 °C0.52
13:00:0020.10 °C1015.80 hPa61.00 %12.30 °C0.52
12:45:0019.60 °C1015.90 hPa63.00 %12.40 °C0.52
12:30:0019.80 °C1016.00 hPa63.00 %12.60 °C0.52
12:15:0019.80 °C1016.10 hPa64.00 %12.80 °C0.52
12:00:0019.90 °C1016.40 hPa67.00 %13.60 °C0.52
11:45:0019.20 °C1016.20 hPa68.00 %13.20 °C0.52
11:30:0019.00 °C1016.20 hPa69.00 %13.20 °C0.52
11:15:0018.80 °C1016.10 hPa71.00 %13.40 °C0.52
11:00:0018.40 °C1016.40 hPa72.00 %13.30 °C0.52
10:45:0017.90 °C1016.40 hPa73.00 %13.00 °C0.52
10:30:0017.90 °C1016.10 hPa75.00 %13.40 °C0.52
10:15:0017.00 °C1016.20 hPa77.00 %12.90 °C0.52
10:00:0016.10 °C1016.40 hPa80.00 %12.70 °C0.52
09:45:0015.30 °C1016.40 hPa81.00 %12.10 °C0.52
09:30:0014.90 °C1016.20 hPa82.00 %11.90 °C0.52
09:15:0014.80 °C1016.30 hPa83.00 %11.90 °C0.52
09:00:0014.80 °C1016.00 hPa85.00 %12.30 °C0.52
08:45:0014.40 °C1016.10 hPa87.00 %12.30 °C0.52
08:30:0014.30 °C1016.00 hPa89.00 %12.50 °C0.52
08:15:0014.30 °C1015.80 hPa90.00 %12.70 °C0.52
08:00:0014.20 °C1015.80 hPa91.00 %12.80 °C0.52
07:45:0014.10 °C1015.70 hPa92.00 %12.80 °C0.52
07:30:0013.40 °C1015.60 hPa93.00 %12.30 °C0.52
07:15:0012.90 °C1015.60 hPa93.00 %11.80 °C0.52
07:00:0012.60 °C1015.70 hPa93.00 %11.50 °C0.52
06:45:0012.20 °C1015.40 hPa93.00 %11.10 °C0.52
06:30:0012.00 °C1015.60 hPa93.00 %10.90 °C0.52
06:15:0011.80 °C1015.60 hPa93.00 %10.70 °C0.52
06:00:0011.30 °C1015.60 hPa93.00 %10.20 °C0.52
05:45:0011.10 °C1015.50 hPa92.00 %9.90 °C0.52
05:30:0010.90 °C1015.20 hPa92.00 %9.70 °C0.52
05:15:0010.90 °C1015.20 hPa92.00 %9.70 °C 
05:00:0010.90 °C1015.20 hPa92.00 %9.70 °C 
04:45:0010.90 °C1015.40 hPa92.00 %9.70 °C 
04:30:0011.00 °C1015.20 hPa92.00 %9.80 °C 
04:15:0011.20 °C1015.30 hPa91.00 %9.80 °C 
04:00:0011.30 °C1015.10 hPa91.00 %9.90 °C 
03:45:0011.50 °C1014.90 hPa91.00 %10.10 °C 
03:30:0011.60 °C1014.80 hPa91.00 %10.20 °C 
03:15:0011.80 °C1014.70 hPa91.00 %10.40 °C 
03:00:0011.80 °C1015.00 hPa91.00 %10.40 °C 
02:45:0011.90 °C1015.20 hPa91.00 %10.50 °C 
02:30:0011.90 °C1015.20 hPa90.00 %10.30 °C 
02:15:0012.40 °C1015.20 hPa90.00 %10.80 °C 
02:00:0012.60 °C1015.00 hPa90.00 %11.00 °C 
01:45:0012.90 °C1015.10 hPa90.00 %11.30 °C 
01:30:0012.90 °C1015.10 hPa90.00 %11.30 °C 
01:15:0013.10 °C1015.30 hPa90.00 %11.50 °C 
01:00:0013.20 °C1015.20 hPa90.00 %11.60 °C 
00:45:0013.30 °C1015.30 hPa90.00 %11.70 °C 
00:30:0013.20 °C1015.50 hPa90.00 %11.60 °C 
00:15:0013.10 °C1015.40 hPa89.00 %11.30 °C 
00:00:0013.20 °C1015.20 hPa89.00 %11.40 °C 

Permanenter Link zu dieser Seite: Wetter im Erzgebirge am 27.06.2016
Performance-Info: Die Erstellung der Seite / Statistik(en) / Tabelle(n) erforderte 5 Datenbankserver-Abfrage(n) und dauerte 102 Millisekunden. (Dieser Messwert ist von der Gesamt-Auslastung des Servers abhängig.)
Erzgebirge - Wetter | Erzgebirge - Wetter (Mobilgeräte) | Komplette Klimadatenbank